sensor_id;sensor_type;location;lat;lon;timestamp;temperature;humidity
72646;DHT22;60687;53.876;10.674;2023-05-23T00:04:19;17.60;99.40
72646;DHT22;60687;53.876;10.674;2023-05-23T00:14:22;17.60;99.90
72646;DHT22;60687;53.876;10.674;2023-05-23T00:24:25;17.50;99.80
72646;DHT22;60687;53.876;10.674;2023-05-23T00:34:28;17.40;99.40
72646;DHT22;60687;53.876;10.674;2023-05-23T00:44:31;17.40;99.60
72646;DHT22;60687;53.876;10.674;2023-05-23T00:54:35;17.30;99.60
72646;DHT22;60687;53.876;10.674;2023-05-23T01:04:39;17.30;99.60
72646;DHT22;60687;53.876;10.674;2023-05-23T01:14:46;17.20;98.40
72646;DHT22;60687;53.876;10.674;2023-05-23T01:24:59;17.20;99.90
72646;DHT22;60687;53.876;10.674;2023-05-23T01:35:09;17.20;99.90
72646;DHT22;60687;53.876;10.674;2023-05-23T01:45:12;17.10;99.90
72646;DHT22;60687;53.876;10.674;2023-05-23T01:55:18;17.10;99.90
72646;DHT22;60687;53.876;10.674;2023-05-23T02:05:22;17.00;99.90
72646;DHT22;60687;53.876;10.674;2023-05-23T02:15:26;17.00;99.90
72646;DHT22;60687;53.876;10.674;2023-05-23T02:25:28;17.00;99.90
72646;DHT22;60687;53.876;10.674;2023-05-23T02:35:32;17.00;99.90
72646;DHT22;60687;53.876;10.674;2023-05-23T02:45:35;16.80;99.90
72646;DHT22;60687;53.876;10.674;2023-05-23T02:55:39;16.70;99.90
72646;DHT22;60687;53.876;10.674;2023-05-23T03:05:42;16.80;99.90
72646;DHT22;60687;53.876;10.674;2023-05-23T03:15:46;16.70;99.90
72646;DHT22;60687;53.876;10.674;2023-05-23T03:25:49;16.70;99.90
72646;DHT22;60687;53.876;10.674;2023-05-23T03:35:52;16.70;99.90
72646;DHT22;60687;53.876;10.674;2023-05-23T03:45:54;16.70;99.90
72646;DHT22;60687;53.876;10.674;2023-05-23T03:55:58;16.70;99.90
72646;DHT22;60687;53.876;10.674;2023-05-23T04:06:01;16.70;99.90
72646;DHT22;60687;53.876;10.674;2023-05-23T04:16:06;16.70;99.90
72646;DHT22;60687;53.876;10.674;2023-05-23T04:26:08;16.70;99.90
72646;DHT22;60687;53.876;10.674;2023-05-23T04:36:17;16.70;99.90
72646;DHT22;60687;53.876;10.674;2023-05-23T04:46:25;16.70;99.90
72646;DHT22;60687;53.876;10.674;2023-05-23T04:56:41;16.70;99.90
72646;DHT22;60687;53.876;10.674;2023-05-23T05:06:44;16.80;99.90
72646;DHT22;60687;53.876;10.674;2023-05-23T05:16:49;16.90;99.90
72646;DHT22;60687;53.876;10.674;2023-05-23T05:26:54;16.90;99.90
72646;DHT22;60687;53.876;10.674;2023-05-23T05:36:58;16.90;99.90
72646;DHT22;60687;53.876;10.674;2023-05-23T05:47:02;16.90;99.90
72646;DHT22;60687;53.876;10.674;2023-05-23T05:57:07;16.90;99.90
72646;DHT22;60687;53.876;10.674;2023-05-23T06:07:09;16.80;99.90
72646;DHT22;60687;53.876;10.674;2023-05-23T06:17:13;16.70;99.90
72646;DHT22;60687;53.876;10.674;2023-05-23T06:27:16;16.60;99.90
72646;DHT22;60687;53.876;10.674;2023-05-23T06:37:20;16.50;99.90
72646;DHT22;60687;53.876;10.674;2023-05-23T06:47:22;16.50;99.90
72646;DHT22;60687;53.876;10.674;2023-05-23T06:57:25;16.40;99.90
72646;DHT22;60687;53.876;10.674;2023-05-23T07:07:28;16.40;99.90
72646;DHT22;60687;53.876;10.674;2023-05-23T07:17:32;16.30;99.90
72646;DHT22;60687;53.876;10.674;2023-05-23T07:27:38;16.30;99.90
72646;DHT22;60687;53.876;10.674;2023-05-23T07:37:42;16.30;99.90
72646;DHT22;60687;53.876;10.674;2023-05-23T07:47:44;16.20;99.90
72646;DHT22;60687;53.876;10.674;2023-05-23T07:57:49;15.90;99.90
72646;DHT22;60687;53.876;10.674;2023-05-23T08:07:54;15.70;99.90
72646;DHT22;60687;53.876;10.674;2023-05-23T08:18:00;15.70;99.90
72646;DHT22;60687;53.876;10.674;2023-05-23T08:28:02;15.70;99.90
72646;DHT22;60687;53.876;10.674;2023-05-23T08:38:17;15.70;99.90
72646;DHT22;60687;53.876;10.674;2023-05-23T08:48:34;15.80;99.90
72646;DHT22;60687;53.876;10.674;2023-05-23T08:58:42;15.80;99.90
72646;DHT22;60687;53.876;10.674;2023-05-23T09:08:46;15.70;99.90
72646;DHT22;60687;53.876;10.674;2023-05-23T09:18:52;15.50;99.90
72646;DHT22;60687;53.876;10.674;2023-05-23T09:28:57;15.30;99.90
72646;DHT22;60687;53.876;10.674;2023-05-23T09:39:03;15.10;99.90
72646;DHT22;60687;53.876;10.674;2023-05-23T09:49:14;14.90;99.90
72646;DHT22;60687;53.876;10.674;2023-05-23T09:59:20;14.70;99.90
72646;DHT22;60687;53.876;10.674;2023-05-23T10:09:24;14.60;99.90
72646;DHT22;60687;53.876;10.674;2023-05-23T10:19:34;14.60;99.90
72646;DHT22;60687;53.876;10.674;2023-05-23T10:29:37;14.50;99.90
72646;DHT22;60687;53.876;10.674;2023-05-23T10:39:48;14.40;99.90
72646;DHT22;60687;53.876;10.674;2023-05-23T10:49:55;14.20;99.90
72646;DHT22;60687;53.876;10.674;2023-05-23T10:59:59;14.00;99.90
72646;DHT22;60687;53.876;10.674;2023-05-23T11:10:03;13.90;99.90
72646;DHT22;60687;53.876;10.674;2023-05-23T11:20:08;13.80;99.90
72646;DHT22;60687;53.876;10.674;2023-05-23T11:30:14;13.80;99.90
72646;DHT22;60687;53.876;10.674;2023-05-23T11:40:31;13.60;99.90
72646;DHT22;60687;53.876;10.674;2023-05-23T11:50:42;13.60;99.90
72646;DHT22;60687;53.876;10.674;2023-05-23T12:00:47;13.50;99.90
72646;DHT22;60687;53.876;10.674;2023-05-23T12:10:51;13.60;99.90
72646;DHT22;60687;53.876;10.674;2023-05-23T12:20:58;13.70;99.90
72646;DHT22;60687;53.876;10.674;2023-05-23T12:31:08;13.80;99.90
72646;DHT22;60687;53.876;10.674;2023-05-23T12:41:17;13.90;99.00
72646;DHT22;60687;53.876;10.674;2023-05-23T12:51:20;14.20;96.00
72646;DHT22;60687;53.876;10.674;2023-05-23T13:01:24;14.40;97.60
72646;DHT22;60687;53.876;10.674;2023-05-23T13:11:26;14.50;94.40
72646;DHT22;60687;53.876;10.674;2023-05-23T13:21:31;14.50;93.70
72646;DHT22;60687;53.876;10.674;2023-05-23T13:31:33;14.60;92.90
72646;DHT22;60687;53.876;10.674;2023-05-23T13:41:37;14.70;88.80
72646;DHT22;60687;53.876;10.674;2023-05-23T13:51:39;14.80;90.50
72646;DHT22;60687;53.876;10.674;2023-05-23T14:01:44;14.90;86.10
72646;DHT22;60687;53.876;10.674;2023-05-23T14:11:46;14.90;87.40
72646;DHT22;60687;53.876;10.674;2023-05-23T14:21:50;14.90;82.70
72646;DHT22;60687;53.876;10.674;2023-05-23T14:31:53;14.80;82.00
72646;DHT22;60687;53.876;10.674;2023-05-23T14:41:57;14.80;83.50
72646;DHT22;60687;53.876;10.674;2023-05-23T14:51:59;14.70;79.60
72646;DHT22;60687;53.876;10.674;2023-05-23T15:02:03;14.70;80.80
72646;DHT22;60687;53.876;10.674;2023-05-23T15:12:07;14.70;80.50
72646;DHT22;60687;53.876;10.674;2023-05-23T15:22:11;14.80;78.70
72646;DHT22;60687;53.876;10.674;2023-05-23T15:32:13;14.80;78.00
72646;DHT22;60687;53.876;10.674;2023-05-23T15:42:18;14.70;75.90
72646;DHT22;60687;53.876;10.674;2023-05-23T15:52:21;14.60;75.30
72646;DHT22;60687;53.876;10.674;2023-05-23T16:02:24;14.50;77.20
72646;DHT22;60687;53.876;10.674;2023-05-23T16:12:27;14.20;77.60
72646;DHT22;60687;53.876;10.674;2023-05-23T16:22:32;14.20;77.70
72646;DHT22;60687;53.876;10.674;2023-05-23T16:32:34;14.00;76.80
72646;DHT22;60687;53.876;10.674;2023-05-23T16:42:38;14.00;80.00
72646;DHT22;60687;53.876;10.674;2023-05-23T16:52:42;13.90;74.30
72646;DHT22;60687;53.876;10.674;2023-05-23T17:02:46;13.80;74.50
72646;DHT22;60687;53.876;10.674;2023-05-23T17:12:48;13.60;75.10
72646;DHT22;60687;53.876;10.674;2023-05-23T17:22:52;13.40;75.50
72646;DHT22;60687;53.876;10.674;2023-05-23T17:32:55;13.30;76.90
72646;DHT22;60687;53.876;10.674;2023-05-23T17:42:58;13.10;76.20
72646;DHT22;60687;53.876;10.674;2023-05-23T17:53:01;13.20;76.90
72646;DHT22;60687;53.876;10.674;2023-05-23T18:03:04;13.10;74.20
72646;DHT22;60687;53.876;10.674;2023-05-23T18:13:07;12.90;76.90
72646;DHT22;60687;53.876;10.674;2023-05-23T18:23:10;12.80;78.10
72646;DHT22;60687;53.876;10.674;2023-05-23T18:33:13;12.70;78.90
72646;DHT22;60687;53.876;10.674;2023-05-23T18:43:17;12.60;78.50
72646;DHT22;60687;53.876;10.674;2023-05-23T18:53:20;12.40;79.70
72646;DHT22;60687;53.876;10.674;2023-05-23T19:03:23;12.30;80.00
72646;DHT22;60687;53.876;10.674;2023-05-23T19:13:27;12.20;81.80
72646;DHT22;60687;53.876;10.674;2023-05-23T19:23:30;12.00;82.20
72646;DHT22;60687;53.876;10.674;2023-05-23T19:33:34;12.00;83.30
72646;DHT22;60687;53.876;10.674;2023-05-23T19:43:37;11.80;85.30
72646;DHT22;60687;53.876;10.674;2023-05-23T19:53:41;11.90;86.00
72646;DHT22;60687;53.876;10.674;2023-05-23T20:03:45;11.70;86.40
72646;DHT22;60687;53.876;10.674;2023-05-23T20:13:47;11.70;86.30
72646;DHT22;60687;53.876;10.674;2023-05-23T20:23:51;11.70;87.50
72646;DHT22;60687;53.876;10.674;2023-05-23T20:33:54;11.60;87.70
72646;DHT22;60687;53.876;10.674;2023-05-23T20:44:00;11.60;88.20
72646;DHT22;60687;53.876;10.674;2023-05-23T20:54:03;11.60;88.60
72646;DHT22;60687;53.876;10.674;2023-05-23T21:04:07;11.50;88.60
72646;DHT22;60687;53.876;10.674;2023-05-23T21:14:11;11.50;89.40
72646;DHT22;60687;53.876;10.674;2023-05-23T21:24:15;11.40;88.80
72646;DHT22;60687;53.876;10.674;2023-05-23T21:34:18;11.40;88.10
72646;DHT22;60687;53.876;10.674;2023-05-23T21:44:22;11.40;88.50
72646;DHT22;60687;53.876;10.674;2023-05-23T21:54:25;11.30;88.90
72646;DHT22;60687;53.876;10.674;2023-05-23T22:04:28;11.20;88.40
72646;DHT22;60687;53.876;10.674;2023-05-23T22:14:33;11.20;89.60
72646;DHT22;60687;53.876;10.674;2023-05-23T22:24:37;11.20;90.00
72646;DHT22;60687;53.876;10.674;2023-05-23T22:34:40;11.20;89.90
72646;DHT22;60687;53.876;10.674;2023-05-23T22:44:44;11.20;90.20
72646;DHT22;60687;53.876;10.674;2023-05-23T22:54:47;11.20;90.40
72646;DHT22;60687;53.876;10.674;2023-05-23T23:04:50;11.20;91.00
72646;DHT22;60687;53.876;10.674;2023-05-23T23:14:53;11.20;91.30
72646;DHT22;60687;53.876;10.674;2023-05-23T23:24:57;11.10;92.10
72646;DHT22;60687;53.876;10.674;2023-05-23T23:34:59;11.10;92.50
72646;DHT22;60687;53.876;10.674;2023-05-23T23:45:04;11.10;92.70
72646;DHT22;60687;53.876;10.674;2023-05-23T23:55:07;11.10;93.00
